sensor_id;sensor_type;location;lat;lon;timestamp;P1;durP1;ratioP1;P2;durP2;ratioP2
28009;SDS011;15334;49.494;8.410;2022-11-06T00:00:33;25.67;;;11.40;;
28009;SDS011;15334;49.494;8.410;2022-11-06T00:03:01;20.45;;;9.95;;
28009;SDS011;15334;49.494;8.410;2022-11-06T00:05:30;23.38;;;11.45;;
28009;SDS011;15334;49.494;8.410;2022-11-06T00:08:24;24.08;;;12.27;;
28009;SDS011;15334;49.494;8.410;2022-11-06T00:10:55;26.13;;;12.23;;
28009;SDS011;15334;49.494;8.410;2022-11-06T00:13:23;27.67;;;12.35;;
28009;SDS011;15334;49.494;8.410;2022-11-06T00:15:51;27.75;;;11.75;;
28009;SDS011;15334;49.494;8.410;2022-11-06T00:18:19;25.05;;;12.40;;
28009;SDS011;15334;49.494;8.410;2022-11-06T00:20:47;29.73;;;12.23;;
28009;SDS011;15334;49.494;8.410;2022-11-06T00:23:18;30.02;;;13.13;;
28009;SDS011;15334;49.494;8.410;2022-11-06T00:25:46;28.77;;;11.70;;
28009;SDS011;15334;49.494;8.410;2022-11-06T00:28:19;28.90;;;13.60;;
28009;SDS011;15334;49.494;8.410;2022-11-06T00:30:47;21.77;;;11.95;;
28009;SDS011;15334;49.494;8.410;2022-11-06T00:33:18;24.17;;;11.65;;
28009;SDS011;15334;49.494;8.410;2022-11-06T00:35:46;24.90;;;11.13;;
28009;SDS011;15334;49.494;8.410;2022-11-06T00:38:14;20.95;;;11.50;;
28009;SDS011;15334;49.494;8.410;2022-11-06T00:40:42;25.42;;;12.18;;
28009;SDS011;15334;49.494;8.410;2022-11-06T00:43:11;29.00;;;11.95;;
28009;SDS011;15334;49.494;8.410;2022-11-06T00:45:40;24.15;;;11.32;;
28009;SDS011;15334;49.494;8.410;2022-11-06T00:48:08;20.98;;;11.10;;
28009;SDS011;15334;49.494;8.410;2022-11-06T00:50:37;24.90;;;11.80;;
28009;SDS011;15334;49.494;8.410;2022-11-06T00:53:06;20.30;;;11.02;;
28009;SDS011;15334;49.494;8.410;2022-11-06T00:55:36;24.58;;;10.52;;
28009;SDS011;15334;49.494;8.410;2022-11-06T00:58:04;26.73;;;10.20;;
28009;SDS011;15334;49.494;8.410;2022-11-06T01:00:32;23.88;;;10.30;;
28009;SDS011;15334;49.494;8.410;2022-11-06T01:03:04;21.20;;;10.18;;
28009;SDS011;15334;49.494;8.410;2022-11-06T01:05:32;20.83;;;10.75;;
28009;SDS011;15334;49.494;8.410;2022-11-06T01:08:00;26.02;;;10.13;;
28009;SDS011;15334;49.494;8.410;2022-11-06T01:10:28;25.05;;;10.65;;
28009;SDS011;15334;49.494;8.410;2022-11-06T01:12:59;19.67;;;9.38;;
28009;SDS011;15334;49.494;8.410;2022-11-06T01:15:27;18.88;;;9.32;;
28009;SDS011;15334;49.494;8.410;2022-11-06T01:17:55;18.63;;;8.32;;
28009;SDS011;15334;49.494;8.410;2022-11-06T01:20:24;26.48;;;10.98;;
28009;SDS011;15334;49.494;8.410;2022-11-06T01:22:52;20.88;;;9.90;;
28009;SDS011;15334;49.494;8.410;2022-11-06T01:25:20;22.50;;;11.00;;
28009;SDS011;15334;49.494;8.410;2022-11-06T01:27:48;19.23;;;9.23;;
28009;SDS011;15334;49.494;8.410;2022-11-06T01:30:16;17.55;;;9.32;;
28009;SDS011;15334;49.494;8.410;2022-11-06T01:32:44;19.67;;;9.38;;
28009;SDS011;15334;49.494;8.410;2022-11-06T01:35:12;25.63;;;10.30;;
28009;SDS011;15334;49.494;8.410;2022-11-06T01:37:41;19.45;;;10.02;;
28009;SDS011;15334;49.494;8.410;2022-11-06T01:40:09;23.85;;;11.98;;
28009;SDS011;15334;49.494;8.410;2022-11-06T01:42:37;25.10;;;12.05;;
28009;SDS011;15334;49.494;8.410;2022-11-06T01:45:20;26.85;;;12.25;;
28009;SDS011;15334;49.494;8.410;2022-11-06T01:48:04;29.88;;;12.75;;
28009;SDS011;15334;49.494;8.410;2022-11-06T01:50:32;28.67;;;13.02;;
28009;SDS011;15334;49.494;8.410;2022-11-06T01:53:02;24.70;;;12.57;;
28009;SDS011;15334;49.494;8.410;2022-11-06T01:55:32;32.13;;;15.45;;
28009;SDS011;15334;49.494;8.410;2022-11-06T01:58:06;37.00;;;14.98;;
28009;SDS011;15334;49.494;8.410;2022-11-06T02:00:37;33.42;;;15.48;;
28009;SDS011;15334;49.494;8.410;2022-11-06T02:03:05;39.20;;;16.60;;
28009;SDS011;15334;49.494;8.410;2022-11-06T02:05:33;39.80;;;17.95;;
28009;SDS011;15334;49.494;8.410;2022-11-06T02:08:03;35.42;;;17.58;;
28009;SDS011;15334;49.494;8.410;2022-11-06T02:10:32;43.25;;;16.38;;
28009;SDS011;15334;49.494;8.410;2022-11-06T02:13:08;30.67;;;14.95;;
28009;SDS011;15334;49.494;8.410;2022-11-06T02:15:49;35.67;;;16.83;;
28009;SDS011;15334;49.494;8.410;2022-11-06T02:18:35;33.13;;;16.45;;
28009;SDS011;15334;49.494;8.410;2022-11-06T02:24:23;27.23;;;14.75;;
28009;SDS011;15334;49.494;8.410;2022-11-06T02:27:20;32.03;;;15.68;;
28009;SDS011;15334;49.494;8.410;2022-11-06T02:29:52;39.58;;;17.17;;
28009;SDS011;15334;49.494;8.410;2022-11-06T02:32:26;34.08;;;15.98;;
28009;SDS011;15334;49.494;8.410;2022-11-06T02:34:59;30.92;;;15.65;;
28009;SDS011;15334;49.494;8.410;2022-11-06T02:37:31;34.42;;;14.95;;
28009;SDS011;15334;49.494;8.410;2022-11-06T02:40:04;30.17;;;13.95;;
28009;SDS011;15334;49.494;8.410;2022-11-06T02:42:38;33.53;;;15.20;;
28009;SDS011;15334;49.494;8.410;2022-11-06T02:45:10;32.83;;;14.48;;
28009;SDS011;15334;49.494;8.410;2022-11-06T02:47:42;30.55;;;12.73;;
28009;SDS011;15334;49.494;8.410;2022-11-06T02:50:13;28.17;;;13.88;;
28009;SDS011;15334;49.494;8.410;2022-11-06T02:55:16;25.02;;;10.27;;
28009;SDS011;15334;49.494;8.410;2022-11-06T02:57:51;27.85;;;12.48;;
28009;SDS011;15334;49.494;8.410;2022-11-06T03:00:21;25.55;;;11.73;;
28009;SDS011;15334;49.494;8.410;2022-11-06T03:02:52;21.75;;;10.75;;
28009;SDS011;15334;49.494;8.410;2022-11-06T03:05:26;22.55;;;11.00;;
28009;SDS011;15334;49.494;8.410;2022-11-06T03:07:59;21.88;;;11.45;;
28009;SDS011;15334;49.494;8.410;2022-11-06T03:10:41;18.75;;;9.73;;
28009;SDS011;15334;49.494;8.410;2022-11-06T03:13:18;25.25;;;10.00;;
28009;SDS011;15334;49.494;8.410;2022-11-06T03:15:52;28.48;;;10.68;;
28009;SDS011;15334;49.494;8.410;2022-11-06T03:18:32;19.13;;;9.43;;
28009;SDS011;15334;49.494;8.410;2022-11-06T03:21:10;21.02;;;9.68;;
28009;SDS011;15334;49.494;8.410;2022-11-06T03:23:47;18.02;;;10.00;;
28009;SDS011;15334;49.494;8.410;2022-11-06T03:26:20;19.65;;;9.95;;
28009;SDS011;15334;49.494;8.410;2022-11-06T03:28:55;18.92;;;9.30;;
28009;SDS011;15334;49.494;8.410;2022-11-06T03:31:29;19.58;;;9.77;;
28009;SDS011;15334;49.494;8.410;2022-11-06T03:34:00;19.75;;;9.05;;
28009;SDS011;15334;49.494;8.410;2022-11-06T03:36:32;18.83;;;8.77;;
28009;SDS011;15334;49.494;8.410;2022-11-06T03:39:04;18.33;;;9.90;;
28009;SDS011;15334;49.494;8.410;2022-11-06T03:41:36;18.88;;;9.80;;
28009;SDS011;15334;49.494;8.410;2022-11-06T03:44:10;19.13;;;9.93;;
28009;SDS011;15334;49.494;8.410;2022-11-06T03:46:42;21.08;;;9.80;;
28009;SDS011;15334;49.494;8.410;2022-11-06T03:49:14;15.55;;;6.93;;
28009;SDS011;15334;49.494;8.410;2022-11-06T03:51:48;20.58;;;10.15;;
28009;SDS011;15334;49.494;8.410;2022-11-06T03:54:19;18.65;;;8.88;;
28009;SDS011;15334;49.494;8.410;2022-11-06T03:56:50;30.15;;;11.85;;
28009;SDS011;15334;49.494;8.410;2022-11-06T03:59:24;24.20;;;10.50;;
28009;SDS011;15334;49.494;8.410;2022-11-06T04:04:24;27.50;;;12.13;;
28009;SDS011;15334;49.494;8.410;2022-11-06T04:09:28;27.00;;;12.95;;
28009;SDS011;15334;49.494;8.410;2022-11-06T04:12:17;30.33;;;14.60;;
28009;SDS011;15334;49.494;8.410;2022-11-06T04:15:09;28.00;;;14.63;;
28009;SDS011;15334;49.494;8.410;2022-11-06T04:17:42;29.25;;;14.90;;
28009;SDS011;15334;49.494;8.410;2022-11-06T04:20:13;29.98;;;15.35;;
28009;SDS011;15334;49.494;8.410;2022-11-06T04:23:00;26.85;;;14.30;;
28009;SDS011;15334;49.494;8.410;2022-11-06T04:25:41;28.92;;;14.02;;
28009;SDS011;15334;49.494;8.410;2022-11-06T04:28:36;27.00;;;13.70;;
28009;SDS011;15334;49.494;8.410;2022-11-06T04:31:17;27.90;;;11.68;;
28009;SDS011;15334;49.494;8.410;2022-11-06T04:33:54;22.02;;;11.02;;
28009;SDS011;15334;49.494;8.410;2022-11-06T04:36:30;25.38;;;11.90;;
28009;SDS011;15334;49.494;8.410;2022-11-06T04:39:04;19.23;;;10.80;;
28009;SDS011;15334;49.494;8.410;2022-11-06T04:41:39;22.15;;;10.65;;
28009;SDS011;15334;49.494;8.410;2022-11-06T04:44:12;23.48;;;10.25;;
28009;SDS011;15334;49.494;8.410;2022-11-06T04:46:46;23.02;;;11.25;;
28009;SDS011;15334;49.494;8.410;2022-11-06T04:49:19;24.73;;;12.85;;
28009;SDS011;15334;49.494;8.410;2022-11-06T04:51:48;27.42;;;11.88;;
28009;SDS011;15334;49.494;8.410;2022-11-06T04:54:17;23.80;;;11.27;;
28009;SDS011;15334;49.494;8.410;2022-11-06T04:56:46;23.52;;;11.85;;
28009;SDS011;15334;49.494;8.410;2022-11-06T04:59:15;24.50;;;12.05;;
28009;SDS011;15334;49.494;8.410;2022-11-06T05:01:45;20.60;;;11.15;;
28009;SDS011;15334;49.494;8.410;2022-11-06T05:04:16;20.60;;;9.75;;
28009;SDS011;15334;49.494;8.410;2022-11-06T05:06:44;20.55;;;9.32;;
28009;SDS011;15334;49.494;8.410;2022-11-06T05:09:12;19.40;;;9.80;;
28009;SDS011;15334;49.494;8.410;2022-11-06T05:11:40;21.75;;;9.07;;
28009;SDS011;15334;49.494;8.410;2022-11-06T05:14:08;14.98;;;8.45;;
28009;SDS011;15334;49.494;8.410;2022-11-06T05:16:36;19.70;;;8.63;;
28009;SDS011;15334;49.494;8.410;2022-11-06T05:19:06;17.83;;;7.45;;
28009;SDS011;15334;49.494;8.410;2022-11-06T05:21:34;16.58;;;7.65;;
28009;SDS011;15334;49.494;8.410;2022-11-06T05:24:20;16.38;;;8.18;;
28009;SDS011;15334;49.494;8.410;2022-11-06T05:26:48;17.00;;;7.60;;
28009;SDS011;15334;49.494;8.410;2022-11-06T05:29:24;18.83;;;8.68;;
28009;SDS011;15334;49.494;8.410;2022-11-06T05:31:56;15.73;;;7.28;;
28009;SDS011;15334;49.494;8.410;2022-11-06T05:34:26;17.38;;;8.00;;
28009;SDS011;15334;49.494;8.410;2022-11-06T05:36:55;17.38;;;7.70;;
28009;SDS011;15334;49.494;8.410;2022-11-06T05:39:24;20.77;;;9.63;;
28009;SDS011;15334;49.494;8.410;2022-11-06T05:41:52;20.83;;;8.98;;
28009;SDS011;15334;49.494;8.410;2022-11-06T05:44:20;21.70;;;10.05;;
28009;SDS011;15334;49.494;8.410;2022-11-06T05:46:49;18.00;;;9.35;;
28009;SDS011;15334;49.494;8.410;2022-11-06T05:49:17;21.48;;;10.38;;
28009;SDS011;15334;49.494;8.410;2022-11-06T05:51:48;22.77;;;12.20;;
28009;SDS011;15334;49.494;8.410;2022-11-06T05:54:16;31.80;;;13.38;;
28009;SDS011;15334;49.494;8.410;2022-11-06T05:56:44;27.27;;;14.55;;
28009;SDS011;15334;49.494;8.410;2022-11-06T05:59:12;26.70;;;14.27;;
28009;SDS011;15334;49.494;8.410;2022-11-06T06:01:40;24.90;;;12.77;;
28009;SDS011;15334;49.494;8.410;2022-11-06T06:04:09;23.27;;;11.93;;
28009;SDS011;15334;49.494;8.410;2022-11-06T06:06:39;21.92;;;10.77;;
28009;SDS011;15334;49.494;8.410;2022-11-06T06:09:09;16.27;;;8.65;;
28009;SDS011;15334;49.494;8.410;2022-11-06T06:11:37;17.83;;;8.40;;
28009;SDS011;15334;49.494;8.410;2022-11-06T06:14:05;12.35;;;6.72;;
28009;SDS011;15334;49.494;8.410;2022-11-06T06:16:34;14.48;;;6.82;;
28009;SDS011;15334;49.494;8.410;2022-11-06T06:19:02;13.88;;;6.22;;
28009;SDS011;15334;49.494;8.410;2022-11-06T06:21:30;13.75;;;6.97;;
28009;SDS011;15334;49.494;8.410;2022-11-06T06:23:58;15.00;;;6.95;;
28009;SDS011;15334;49.494;8.410;2022-11-06T06:26:27;14.63;;;6.50;;
28009;SDS011;15334;49.494;8.410;2022-11-06T06:28:55;15.52;;;6.68;;
28009;SDS011;15334;49.494;8.410;2022-11-06T06:31:23;15.20;;;7.30;;
28009;SDS011;15334;49.494;8.410;2022-11-06T06:33:51;13.95;;;6.32;;
28009;SDS011;15334;49.494;8.410;2022-11-06T06:36:22;15.57;;;6.82;;
28009;SDS011;15334;49.494;8.410;2022-11-06T06:38:50;16.92;;;6.10;;
28009;SDS011;15334;49.494;8.410;2022-11-06T06:41:18;13.75;;;7.30;;
28009;SDS011;15334;49.494;8.410;2022-11-06T06:43:48;16.05;;;7.03;;
28009;SDS011;15334;49.494;8.410;2022-11-06T06:46:17;12.57;;;6.32;;
28009;SDS011;15334;49.494;8.410;2022-11-06T06:48:56;14.82;;;6.75;;
28009;SDS011;15334;49.494;8.410;2022-11-06T06:51:24;18.73;;;7.03;;
28009;SDS011;15334;49.494;8.410;2022-11-06T06:53:53;17.05;;;6.78;;
28009;SDS011;15334;49.494;8.410;2022-11-06T06:56:21;11.15;;;6.22;;
28009;SDS011;15334;49.494;8.410;2022-11-06T06:58:53;13.73;;;7.68;;
28009;SDS011;15334;49.494;8.410;2022-11-06T07:01:21;16.75;;;6.78;;
28009;SDS011;15334;49.494;8.410;2022-11-06T07:03:49;12.35;;;6.65;;
28009;SDS011;15334;49.494;8.410;2022-11-06T07:06:17;18.23;;;7.68;;
28009;SDS011;15334;49.494;8.410;2022-11-06T07:08:46;12.30;;;6.40;;
28009;SDS011;15334;49.494;8.410;2022-11-06T07:11:16;14.20;;;6.65;;
28009;SDS011;15334;49.494;8.410;2022-11-06T07:13:44;13.32;;;6.65;;
28009;SDS011;15334;49.494;8.410;2022-11-06T07:16:27;14.85;;;6.95;;
28009;SDS011;15334;49.494;8.410;2022-11-06T07:18:58;12.60;;;6.43;;
28009;SDS011;15334;49.494;8.410;2022-11-06T07:21:26;16.73;;;7.05;;
28009;SDS011;15334;49.494;8.410;2022-11-06T07:23:55;13.48;;;7.20;;
28009;SDS011;15334;49.494;8.410;2022-11-06T07:26:23;13.52;;;6.72;;
28009;SDS011;15334;49.494;8.410;2022-11-06T07:28:51;16.70;;;7.72;;
28009;SDS011;15334;49.494;8.410;2022-11-06T07:31:19;12.90;;;6.53;;
28009;SDS011;15334;49.494;8.410;2022-11-06T07:33:49;14.80;;;6.70;;
28009;SDS011;15334;49.494;8.410;2022-11-06T07:36:17;20.77;;;7.43;;
28009;SDS011;15334;49.494;8.410;2022-11-06T07:38:45;11.90;;;7.03;;
28009;SDS011;15334;49.494;8.410;2022-11-06T07:41:15;19.83;;;9.18;;
28009;SDS011;15334;49.494;8.410;2022-11-06T07:43:43;24.23;;;10.55;;
28009;SDS011;15334;49.494;8.410;2022-11-06T07:46:15;19.08;;;8.90;;
28009;SDS011;15334;49.494;8.410;2022-11-06T07:48:43;19.55;;;8.38;;
28009;SDS011;15334;49.494;8.410;2022-11-06T07:51:13;14.30;;;7.93;;
28009;SDS011;15334;49.494;8.410;2022-11-06T07:53:41;15.00;;;7.72;;
28009;SDS011;15334;49.494;8.410;2022-11-06T07:56:11;15.38;;;7.75;;
28009;SDS011;15334;49.494;8.410;2022-11-06T07:58:41;19.73;;;8.57;;
28009;SDS011;15334;49.494;8.410;2022-11-06T08:01:12;17.67;;;8.68;;
28009;SDS011;15334;49.494;8.410;2022-11-06T08:03:44;17.02;;;9.70;;
28009;SDS011;15334;49.494;8.410;2022-11-06T08:06:14;15.05;;;7.50;;
28009;SDS011;15334;49.494;8.410;2022-11-06T08:08:42;13.65;;;7.78;;
28009;SDS011;15334;49.494;8.410;2022-11-06T08:11:10;14.30;;;7.75;;
28009;SDS011;15334;49.494;8.410;2022-11-06T08:13:39;14.60;;;7.40;;
28009;SDS011;15334;49.494;8.410;2022-11-06T08:16:08;19.73;;;7.90;;
28009;SDS011;15334;49.494;8.410;2022-11-06T08:18:40;15.35;;;7.72;;
28009;SDS011;15334;49.494;8.410;2022-11-06T08:21:11;18.23;;;8.63;;
28009;SDS011;15334;49.494;8.410;2022-11-06T08:23:41;15.90;;;7.95;;
28009;SDS011;15334;49.494;8.410;2022-11-06T08:26:11;16.55;;;7.93;;
28009;SDS011;15334;49.494;8.410;2022-11-06T08:28:40;16.25;;;7.43;;
28009;SDS011;15334;49.494;8.410;2022-11-06T08:31:08;15.40;;;8.25;;
28009;SDS011;15334;49.494;8.410;2022-11-06T08:33:37;18.05;;;9.02;;
28009;SDS011;15334;49.494;8.410;2022-11-06T08:36:07;15.60;;;8.02;;
28009;SDS011;15334;49.494;8.410;2022-11-06T08:38:45;17.70;;;7.97;;
28009;SDS011;15334;49.494;8.410;2022-11-06T08:41:15;16.00;;;8.65;;
28009;SDS011;15334;49.494;8.410;2022-11-06T08:43:45;16.73;;;7.97;;
28009;SDS011;15334;49.494;8.410;2022-11-06T08:46:23;15.00;;;7.25;;
28009;SDS011;15334;49.494;8.410;2022-11-06T08:48:51;15.55;;;7.93;;
28009;SDS011;15334;49.494;8.410;2022-11-06T08:51:19;16.58;;;7.80;;
28009;SDS011;15334;49.494;8.410;2022-11-06T08:53:52;14.85;;;6.97;;
28009;SDS011;15334;49.494;8.410;2022-11-06T08:56:20;13.52;;;7.30;;
28009;SDS011;15334;49.494;8.410;2022-11-06T08:58:48;16.88;;;7.80;;
28009;SDS011;15334;49.494;8.410;2022-11-06T09:01:24;13.63;;;7.25;;
28009;SDS011;15334;49.494;8.410;2022-11-06T09:03:55;14.18;;;7.43;;
28009;SDS011;15334;49.494;8.410;2022-11-06T09:06:27;15.23;;;7.75;;
28009;SDS011;15334;49.494;8.410;2022-11-06T09:08:58;19.40;;;9.43;;
28009;SDS011;15334;49.494;8.410;2022-11-06T09:11:27;16.17;;;9.57;;
28009;SDS011;15334;49.494;8.410;2022-11-06T09:13:56;17.27;;;9.75;;
28009;SDS011;15334;49.494;8.410;2022-11-06T09:16:25;16.27;;;8.02;;
28009;SDS011;15334;49.494;8.410;2022-11-06T09:18:56;14.02;;;7.78;;
28009;SDS011;15334;49.494;8.410;2022-11-06T09:21:27;16.27;;;7.85;;
28009;SDS011;15334;49.494;8.410;2022-11-06T09:24:03;13.23;;;7.22;;
28009;SDS011;15334;49.494;8.410;2022-11-06T09:26:32;15.13;;;7.47;;
28009;SDS011;15334;49.494;8.410;2022-11-06T09:29:00;14.60;;;7.28;;
28009;SDS011;15334;49.494;8.410;2022-11-06T09:31:28;12.07;;;6.85;;
28009;SDS011;15334;49.494;8.410;2022-11-06T09:33:59;16.40;;;7.10;;
28009;SDS011;15334;49.494;8.410;2022-11-06T09:36:27;12.95;;;7.00;;
28009;SDS011;15334;49.494;8.410;2022-11-06T09:38:55;10.73;;;6.13;;
28009;SDS011;15334;49.494;8.410;2022-11-06T09:41:29;12.02;;;5.95;;
28009;SDS011;15334;49.494;8.410;2022-11-06T09:44:10;9.60;;;5.57;;
28009;SDS011;15334;49.494;8.410;2022-11-06T09:46:50;9.23;;;5.45;;
28009;SDS011;15334;49.494;8.410;2022-11-06T09:49:22;9.95;;;5.13;;
28009;SDS011;15334;49.494;8.410;2022-11-06T09:52:05;9.05;;;5.03;;
28009;SDS011;15334;49.494;8.410;2022-11-06T09:54:41;8.40;;;4.28;;
28009;SDS011;15334;49.494;8.410;2022-11-06T09:57:26;10.75;;;4.63;;
28009;SDS011;15334;49.494;8.410;2022-11-06T10:00:00;8.77;;;4.25;;
28009;SDS011;15334;49.494;8.410;2022-11-06T10:02:32;8.65;;;3.97;;
28009;SDS011;15334;49.494;8.410;2022-11-06T10:05:12;7.22;;;3.83;;
28009;SDS011;15334;49.494;8.410;2022-11-06T10:07:44;8.35;;;4.38;;
28009;SDS011;15334;49.494;8.410;2022-11-06T10:10:19;5.10;;;2.67;;
28009;SDS011;15334;49.494;8.410;2022-11-06T10:12:59;10.23;;;3.90;;
28009;SDS011;15334;49.494;8.410;2022-11-06T10:15:43;7.15;;;4.32;;
28009;SDS011;15334;49.494;8.410;2022-11-06T10:18:33;7.65;;;3.25;;
28009;SDS011;15334;49.494;8.410;2022-11-06T10:21:09;6.00;;;3.40;;
28009;SDS011;15334;49.494;8.410;2022-11-06T10:23:43;7.65;;;3.40;;
28009;SDS011;15334;49.494;8.410;2022-11-06T10:26:15;6.68;;;3.13;;
28009;SDS011;15334;49.494;8.410;2022-11-06T10:31:55;7.90;;;3.60;;
28009;SDS011;15334;49.494;8.410;2022-11-06T10:34:35;7.05;;;3.22;;
28009;SDS011;15334;49.494;8.410;2022-11-06T10:37:14;4.80;;;2.85;;
28009;SDS011;15334;49.494;8.410;2022-11-06T10:39:46;7.90;;;3.58;;
28009;SDS011;15334;49.494;8.410;2022-11-06T10:42:16;7.22;;;3.97;;
28009;SDS011;15334;49.494;8.410;2022-11-06T10:44:48;8.10;;;3.92;;
28009;SDS011;15334;49.494;8.410;2022-11-06T10:47:26;4.55;;;3.03;;
28009;SDS011;15334;49.494;8.410;2022-11-06T10:49:58;5.97;;;3.55;;
28009;SDS011;15334;49.494;8.410;2022-11-06T10:52:32;8.65;;;3.60;;
28009;SDS011;15334;49.494;8.410;2022-11-06T10:58:12;7.45;;;3.40;;
28009;SDS011;15334;49.494;8.410;2022-11-06T11:00:48;5.60;;;3.00;;
28009;SDS011;15334;49.494;8.410;2022-11-06T11:03:28;6.57;;;3.28;;
28009;SDS011;15334;49.494;8.410;2022-11-06T11:06:01;5.18;;;3.00;;
28009;SDS011;15334;49.494;8.410;2022-11-06T11:08:37;5.53;;;3.20;;
28009;SDS011;15334;49.494;8.410;2022-11-06T11:11:20;6.18;;;2.90;;
28009;SDS011;15334;49.494;8.410;2022-11-06T11:14:12;5.63;;;3.20;;
28009;SDS011;15334;49.494;8.410;2022-11-06T11:16:52;5.53;;;3.15;;
28009;SDS011;15334;49.494;8.410;2022-11-06T11:19:32;3.88;;;2.65;;
28009;SDS011;15334;49.494;8.410;2022-11-06T11:22:04;6.07;;;2.92;;
28009;SDS011;15334;49.494;8.410;2022-11-06T11:24:57;5.47;;;2.70;;
28009;SDS011;15334;49.494;8.410;2022-11-06T11:27:35;5.40;;;3.05;;
28009;SDS011;15334;49.494;8.410;2022-11-06T11:30:18;9.43;;;3.50;;
28009;SDS011;15334;49.494;8.410;2022-11-06T11:32:59;7.65;;;3.53;;
28009;SDS011;15334;49.494;8.410;2022-11-06T11:35:28;5.22;;;3.15;;
28009;SDS011;15334;49.494;8.410;2022-11-06T11:38:04;4.97;;;2.80;;
28009;SDS011;15334;49.494;8.410;2022-11-06T11:40:40;4.78;;;3.00;;
28009;SDS011;15334;49.494;8.410;2022-11-06T11:43:14;5.57;;;3.28;;
28009;SDS011;15334;49.494;8.410;2022-11-06T11:46:10;6.15;;;3.03;;
28009;SDS011;15334;49.494;8.410;2022-11-06T11:48:48;5.25;;;3.08;;
28009;SDS011;15334;49.494;8.410;2022-11-06T11:51:27;4.72;;;3.05;;
28009;SDS011;15334;49.494;8.410;2022-11-06T11:54:14;9.02;;;3.45;;
28009;SDS011;15334;49.494;8.410;2022-11-06T11:56:50;5.65;;;2.92;;
28009;SDS011;15334;49.494;8.410;2022-11-06T11:59:35;6.10;;;3.05;;
28009;SDS011;15334;49.494;8.410;2022-11-06T12:02:11;5.82;;;3.08;;
28009;SDS011;15334;49.494;8.410;2022-11-06T12:04:52;5.20;;;2.90;;
28009;SDS011;15334;49.494;8.410;2022-11-06T12:07:26;7.78;;;3.70;;
28009;SDS011;15334;49.494;8.410;2022-11-06T12:09:57;5.63;;;3.25;;
28009;SDS011;15334;49.494;8.410;2022-11-06T12:12:28;5.93;;;3.42;;
28009;SDS011;15334;49.494;8.410;2022-11-06T12:15:05;7.28;;;3.60;;
28009;SDS011;15334;49.494;8.410;2022-11-06T12:17:47;5.82;;;3.08;;
28009;SDS011;15334;49.494;8.410;2022-11-06T12:20:21;6.07;;;3.45;;
28009;SDS011;15334;49.494;8.410;2022-11-06T12:22:53;5.53;;;3.55;;
28009;SDS011;15334;49.494;8.410;2022-11-06T12:25:24;6.95;;;2.97;;
28009;SDS011;15334;49.494;8.410;2022-11-06T12:27:58;7.00;;;3.30;;
28009;SDS011;15334;49.494;8.410;2022-11-06T12:30:30;6.35;;;3.95;;
28009;SDS011;15334;49.494;8.410;2022-11-06T12:33:01;6.93;;;3.72;;
28009;SDS011;15334;49.494;8.410;2022-11-06T12:35:35;7.75;;;3.28;;
28009;SDS011;15334;49.494;8.410;2022-11-06T12:38:10;7.07;;;3.60;;
28009;SDS011;15334;49.494;8.410;2022-11-06T12:40:44;8.23;;;4.00;;
28009;SDS011;15334;49.494;8.410;2022-11-06T12:43:19;7.32;;;3.50;;
28009;SDS011;15334;49.494;8.410;2022-11-06T12:46:12;8.63;;;3.80;;
28009;SDS011;15334;49.494;8.410;2022-11-06T12:52:11;7.72;;;4.40;;
28009;SDS011;15334;49.494;8.410;2022-11-06T12:55:02;7.00;;;3.50;;
28009;SDS011;15334;49.494;8.410;2022-11-06T12:57:44;4.80;;;2.90;;
28009;SDS011;15334;49.494;8.410;2022-11-06T13:00:22;6.63;;;2.35;;
28009;SDS011;15334;49.494;8.410;2022-11-06T13:05:57;6.43;;;3.08;;
28009;SDS011;15334;49.494;8.410;2022-11-06T13:08:40;5.55;;;2.60;;
28009;SDS011;15334;49.494;8.410;2022-11-06T13:11:20;6.55;;;2.83;;
28009;SDS011;15334;49.494;8.410;2022-11-06T13:14:00;3.55;;;2.00;;
28009;SDS011;15334;49.494;8.410;2022-11-06T13:16:40;5.75;;;2.70;;
28009;SDS011;15334;49.494;8.410;2022-11-06T13:19:18;4.63;;;2.28;;
28009;SDS011;15334;49.494;8.410;2022-11-06T13:24:47;5.78;;;2.65;;
28009;SDS011;15334;49.494;8.410;2022-11-06T13:27:23;4.20;;;2.30;;
28009;SDS011;15334;49.494;8.410;2022-11-06T13:29:59;7.13;;;2.65;;
28009;SDS011;15334;49.494;8.410;2022-11-06T13:32:30;5.47;;;2.53;;
28009;SDS011;15334;49.494;8.410;2022-11-06T13:35:02;5.70;;;2.47;;
28009;SDS011;15334;49.494;8.410;2022-11-06T13:37:34;6.15;;;3.22;;
28009;SDS011;15334;49.494;8.410;2022-11-06T13:40:19;8.27;;;3.47;;
28009;SDS011;15334;49.494;8.410;2022-11-06T13:42:50;5.60;;;3.40;;
28009;SDS011;15334;49.494;8.410;2022-11-06T13:45:23;5.85;;;3.33;;
28009;SDS011;15334;49.494;8.410;2022-11-06T13:48:00;6.30;;;3.47;;
28009;SDS011;15334;49.494;8.410;2022-11-06T13:50:38;5.97;;;2.90;;
28009;SDS011;15334;49.494;8.410;2022-11-06T13:53:17;6.68;;;3.30;;
28009;SDS011;15334;49.494;8.410;2022-11-06T13:56:02;7.05;;;3.30;;
28009;SDS011;15334;49.494;8.410;2022-11-06T13:58:48;4.85;;;2.53;;
28009;SDS011;15334;49.494;8.410;2022-11-06T14:01:44;4.82;;;2.60;;
28009;SDS011;15334;49.494;8.410;2022-11-06T14:07:24;5.70;;;3.22;;
28009;SDS011;15334;49.494;8.410;2022-11-06T14:09:56;5.45;;;2.60;;
28009;SDS011;15334;49.494;8.410;2022-11-06T14:12:26;7.53;;;2.80;;
28009;SDS011;15334;49.494;8.410;2022-11-06T14:17:50;6.97;;;3.00;;
28009;SDS011;15334;49.494;8.410;2022-11-06T14:20:26;4.47;;;2.63;;
28009;SDS011;15334;49.494;8.410;2022-11-06T14:25:58;8.88;;;3.00;;
28009;SDS011;15334;49.494;8.410;2022-11-06T14:28:31;6.95;;;2.90;;
28009;SDS011;15334;49.494;8.410;2022-11-06T14:31:00;9.05;;;3.33;;
28009;SDS011;15334;49.494;8.410;2022-11-06T14:36:29;7.70;;;3.53;;
28009;SDS011;15334;49.494;8.410;2022-11-06T14:39:02;4.88;;;2.97;;
28009;SDS011;15334;49.494;8.410;2022-11-06T14:44:37;6.63;;;3.30;;
28009;SDS011;15334;49.494;8.410;2022-11-06T14:47:23;7.63;;;3.30;;
28009;SDS011;15334;49.494;8.410;2022-11-06T14:50:00;7.57;;;3.97;;
28009;SDS011;15334;49.494;8.410;2022-11-06T14:52:38;5.35;;;2.97;;
28009;SDS011;15334;49.494;8.410;2022-11-06T14:55:22;5.65;;;2.95;;
28009;SDS011;15334;49.494;8.410;2022-11-06T14:57:57;6.80;;;3.38;;
28009;SDS011;15334;49.494;8.410;2022-11-06T15:00:42;6.88;;;2.97;;
28009;SDS011;15334;49.494;8.410;2022-11-06T15:03:24;10.57;;;2.83;;
28009;SDS011;15334;49.494;8.410;2022-11-06T15:06:06;7.20;;;4.30;;
28009;SDS011;15334;49.494;8.410;2022-11-06T15:08:57;6.63;;;3.35;;
28009;SDS011;15334;49.494;8.410;2022-11-06T15:17:34;8.45;;;2.95;;
28009;SDS011;15334;49.494;8.410;2022-11-06T15:20:18;5.82;;;2.83;;
28009;SDS011;15334;49.494;8.410;2022-11-06T15:23:12;7.63;;;3.08;;
28009;SDS011;15334;49.494;8.410;2022-11-06T15:25:46;4.30;;;2.63;;
28009;SDS011;15334;49.494;8.410;2022-11-06T15:28:22;5.18;;;2.83;;
28009;SDS011;15334;49.494;8.410;2022-11-06T15:30:56;11.13;;;2.90;;
28009;SDS011;15334;49.494;8.410;2022-11-06T15:33:30;4.38;;;2.78;;
28009;SDS011;15334;49.494;8.410;2022-11-06T15:38:35;5.53;;;2.88;;
28009;SDS011;15334;49.494;8.410;2022-11-06T15:41:06;6.10;;;3.30;;
28009;SDS011;15334;49.494;8.410;2022-11-06T15:43:39;9.15;;;4.70;;
28009;SDS011;15334;49.494;8.410;2022-11-06T15:46:15;4.78;;;2.78;;
28009;SDS011;15334;49.494;8.410;2022-11-06T15:49:06;7.47;;;4.05;;
28009;SDS011;15334;49.494;8.410;2022-11-06T15:51:48;5.85;;;3.63;;
28009;SDS011;15334;49.494;8.410;2022-11-06T15:54:30;7.25;;;3.38;;
28009;SDS011;15334;49.494;8.410;2022-11-06T15:57:02;5.43;;;2.83;;
28009;SDS011;15334;49.494;8.410;2022-11-06T15:59:32;6.63;;;2.88;;
28009;SDS011;15334;49.494;8.410;2022-11-06T16:02:04;8.27;;;3.30;;